Flight Track Log - Related Links

Times and Time Zones

All times are in EDT time to prevent confusion due to time zone crossing. See the N41AU flight status page for this flight to view local times or setup timezone preferences in your user account.

Time Position Orientation Groundspeed Altitude Reporting Facility
EDT Latitude Longitude Course Direction KTS MPH feet Rate Location/Type
Fri 01:57:36 PM 41.8739 -88.2783 265° West 141 162 2,000  Level Chicago Center
Fri 01:58:38 PM 41.8672 -88.3867 265° West 240 276 6,400 3,677 Climbing Chicago Center
Fri 01:59:40 PM 41.8675 -88.4778 270° West 244 281 9,600 2,371 Climbing Chicago Center
Fri 02:00:42 PM 41.8483 -88.5800 256° West 292 336 11,300 1,306 Climbing Chicago Center
Fri 02:01:44 PM 41.8103 -88.6956 246° West 336 387 12,300 1,344 Climbing Chicago Center
Fri 02:02:47 PM 41.7594 -88.8492 246° West 377 434 14,100 1,548 Climbing Chicago Center
Fri 02:03:48 PM 41.7181 -88.9814 247° West 386 444 15,500 1,161 Climbing Chicago Center
Fri 02:04:51 PM 41.6833 -89.1219 252° West 401 461 16,500 1,008 Climbing Chicago Center
Fri 02:05:53 PM 41.6450 -89.2644 250° West 411 473 17,600 871 Climbing Chicago Center
Fri 02:06:55 PM 41.6108 -89.4097 253° West 416 479 18,300 919 Climbing Chicago Center
Fri 02:07:57 PM 41.5861 -89.5850 259° West 411 473 19,500 1,016 Climbing Chicago Center
Fri 02:08:59 PM 41.5847 -89.7347 269° West 414 476 20,400 919 Climbing Chicago Center
Fri 02:10:01 PM 41.5953 -89.8825 276° West 405 466 21,400 968 Climbing Chicago Center
Fri 02:11:03 PM 41.6072 -90.0289 276° West 402 463 22,400 968 Climbing Chicago Center
Fri 02:12:05 PM 41.6233 -90.1739 279° West 399 459 23,400 919 Climbing Chicago Center
Fri 02:13:07 PM 41.6469 -90.3197 282° West 407 468 24,300 1,065 Climbing Chicago Center
Fri 02:14:09 PM 41.6928 -90.4828 291° West 394 453 25,600 1,056 Climbing Chicago Center
Fri 02:15:12 PM 41.7253 -90.6206 288° West 390 449 26,500 1,008 Climbing Chicago Center
Fri 02:16:14 PM 41.7439 -90.7700 280° West 380 437 27,700 1,065 Climbing Chicago Center
Fri 02:17:16 PM 41.7364 -90.9100 266° West 378 435 28,700 919 Climbing Chicago Center
Fri 02:18:18 PM 41.7344 -91.0447 269° West 368 423 29,600 919 Climbing Chicago Center
Fri 02:19:20 PM 41.7314 -91.1778 268° West 362 417 30,600 971 Climbing Chicago Center
Fri 02:20:34 PM 41.7281 -91.3367 268° West 358 412 31,800 1,015 Climbing Chicago Center
Fri 02:21:36 PM 41.7244 -91.4931 268° West 354 407 32,900 960 Climbing Chicago Center
Fri 02:22:39 PM 41.7283 -91.6208 272° West 350 403 33,800 816 Climbing Chicago Center
Fri 02:23:41 PM 41.7319 -91.7453 272° West 338 389 34,600 629 Climbing Chicago Center
Fri 02:24:43 PM 41.7278 -91.8758 268° West 349 402 35,100 532 Climbing Chicago Center
Fri 02:25:45 PM 41.7242 -92.0047 268° West 349 402 35,700 581 Climbing Chicago Center
Fri 02:26:47 PM 41.7203 -92.1347 268° West 351 404 36,300 629 Climbing Chicago Center
Fri 02:27:49 PM 41.7156 -92.2861 268° West 345 397 37,000 581 Climbing Chicago Center
Fri 02:28:51 PM 41.7117 -92.4144 268° West 346 398 37,500 484 Climbing Chicago Center
Fri 02:29:53 PM 41.7072 -92.5403 267° West 342 394 38,000 242 Climbing Chicago Center
Fri 02:30:55 PM 41.7033 -92.6672 268° West 343 395 38,000  Level Chicago Center
Fri 02:31:17 PM 41.7008 -92.7203 266° West 343 395 38,000  Level Minneapolis Center
Fri 02:32:19 PM 41.6964 -92.8608 268° West 351 404 38,000  Level Minneapolis Center
Fri 02:33:21 PM 41.6917 -92.9956 267° West 360 414 38,000  Level Minneapolis Center
Fri 02:34:23 PM 41.6869 -93.1303 267° West 365 420 38,000  Level Minneapolis Center
Fri 02:35:25 PM 41.6822 -93.2656 267° West 367 422 38,000  Level Minneapolis Center
Fri 02:36:27 PM 41.6750 -93.4294 267° West 370 426 38,000  Level Minneapolis Center
Fri 02:37:29 PM 41.6703 -93.5644 267° West 368 423 38,000  Level Minneapolis Center
Fri 02:38:31 PM 41.6650 -93.7017 267° West 371 427 38,000  Level Minneapolis Center
Fri 02:39:33 PM 41.6592 -93.8408 267° West 376 433 38,000  Level Minneapolis Center
Fri 02:40:35 PM 41.6514 -94.0069 266° West 377 434 38,000  Level Minneapolis Center
Fri 02:41:37 PM 41.6447 -94.1458 266° West 378 435 38,000  Level Minneapolis Center
Fri 02:42:39 PM 41.6378 -94.2706 266° West 376 433 38,000  Level Minneapolis Center
Fri 02:43:41 PM 41.6308 -94.4383 267° West 375 432 38,000  Level Minneapolis Center
Fri 02:44:43 PM 41.6233 -94.5778 266° West 376 433 38,000  Level Minneapolis Center
Fri 02:45:46 PM 41.6169 -94.7178 267° West 375 432 38,000  Level Minneapolis Center
Fri 02:46:48 PM 41.6081 -94.8589 265° West 379 436 38,000  Level Minneapolis Center
Fri 02:47:50 PM 41.6014 -94.9972 266° West 373 429 38,000  Level Minneapolis Center
Fri 02:48:52 PM 41.5939 -95.1411 266° West 384 442 38,000  Level Minneapolis Center
Fri 02:49:54 PM 41.5694 -95.3089 259° West 384 442 38,000  Level Minneapolis Center
Fri 02:50:56 PM 41.5469 -95.4458 258° West 379 436 38,000  Level Minneapolis Center
Fri 02:51:58 PM 41.5242 -95.5842 258° West 381 438 38,000  Level Minneapolis Center
Fri 02:53:00 PM 41.5011 -95.7283 258° West 380 437 38,000  Level Minneapolis Center
Fri 02:54:02 PM 41.4792 -95.8675 258° West 382 440 38,000  Level Minneapolis Center
Fri 02:55:04 PM 41.4561 -96.0061 258° West 383 441 38,000  Level Minneapolis Center
Fri 02:56:06 PM 41.4339 -96.1419 258° West 377 434 38,000  Level Minneapolis Center
Fri 02:57:08 PM 41.4114 -96.3083 260° West 380 437 38,000  Level Minneapolis Center
Fri 02:58:10 PM 41.4003 -96.4300 263° West 381 438 38,000  Level Minneapolis Center
Fri 02:59:12 PM 41.3858 -96.5975 263° West 381 438 38,000  Level Minneapolis Center
Fri 03:00:14 PM 41.3722 -96.7383 263° West 382 440 38,000  Level Minneapolis Center
Fri 03:01:16 PM 41.3614 -96.8800 264° West 384 442 38,000  Level Minneapolis Center
Fri 03:02:18 PM 41.3525 -97.0211 265° West 385 443 38,000  Level Minneapolis Center
Fri 03:03:20 PM 41.3425 -97.1628 265° West 385 443 38,000  Level Minneapolis Center
Fri 03:04:22 PM 41.3328 -97.3058 265° West 388 447 38,000  Level Minneapolis Center
Fri 03:05:24 PM 41.3219 -97.4697 265° West 389 448 38,000  Level Minneapolis Center
Fri 03:06:26 PM 41.3117 -97.6131 265° West 389 448 38,000  Level Minneapolis Center
Fri 03:07:28 PM 41.3008 -97.7575 264° West 392 451 38,000  Level Minneapolis Center
Fri 03:08:30 PM 41.2906 -97.9028 265° West 394 453 38,000  Level Minneapolis Center
Fri 03:09:32 PM 41.2792 -98.0481 264° West 394 453 38,000  Level Minneapolis Center
Fri 03:10:34 PM 41.2667 -98.2214 265° West 394 453 38,000  Level Minneapolis Center
Fri 03:11:35 PM 41.2553 -98.3656 264° West 393 452 38,000  Level Minneapolis Center
Fri 03:12:37 PM 41.2458 -98.4903 264° West 395 455 38,000  Level Minneapolis Center
Fri 03:13:39 PM 41.2325 -98.6639 264° West 395 455 38,000  Level Minneapolis Center
Fri 03:14:41 PM 41.2211 -98.8094 264° West 396 456 38,000  Level Minneapolis Center
Fri 03:15:43 PM 41.2078 -98.9558 263° West 399 459 38,000  Level Minneapolis Center
Fri 03:16:04 PM 41.2025 -99.0169 263° West 398 458 38,000  Level Denver Center
Fri 03:17:06 PM 41.1900 -99.1675 264° West 394 453 38,000  Level Denver Center
Fri 03:18:08 PM 41.1781 -99.3122 264° West 396 456 38,000  Level Denver Center
Fri 03:19:10 PM 41.1647 -99.4550 263° West 395 455 38,000  Level Denver Center
Fri 03:20:12 PM 41.1528 -99.5936 264° West 395 455 38,000  Level Denver Center
Fri 03:21:14 PM 41.1378 -99.7564 263° West 397 457 38,000  Level Denver Center
Fri 03:22:16 PM 41.1247 -99.8967 263° West 401 461 38,000  Level Denver Center
Fri 03:23:18 PM 41.1103 -100.0594 263° West 401 461 38,000  Level Denver Center
Fri 03:24:20 PM 41.0975 -100.2000 263° West 401 461 38,000  Level Denver Center
Fri 03:25:34 PM 41.0817 -100.3631 263° West 401 461 38,000  Level Denver Center
Fri 03:26:36 PM 41.0636 -100.5511 263° West 405 466 38,000  Level Denver Center
Fri 03:27:38 PM 41.0506 -100.6908 263° West 404 465 38,000  Level Denver Center
Fri 03:28:40 PM 41.0339 -100.8550 262° West 407 468 38,000  Level Denver Center
Fri 03:29:42 PM 41.0189 -100.9944 262° West 405 466 38,000  Level Denver Center
Fri 03:30:44 PM 41.0017 -101.1594 262° West 408 470 38,000  Level Denver Center
Fri 03:31:46 PM 40.9872 -101.3011 262° West 409 471 38,000  Level Denver Center
Fri 03:32:48 PM 40.9697 -101.4669 262° West 410 472 38,000  Level Denver Center
Fri 03:33:50 PM 40.9536 -101.6111 262° West 413 475 38,000  Level Denver Center
Fri 03:34:52 PM 40.9358 -101.7789 262° West 413 475 38,000  Level Denver Center
Fri 03:35:54 PM 40.9206 -101.9233 262° West 415 478 38,000  Level Denver Center
Fri 03:36:56 PM 40.9014 -102.0911 261° West 414 476 38,000  Level Denver Center
Fri 03:37:58 PM 40.8861 -102.2353 262° West 416 479 38,000  Level Denver Center
Fri 03:39:00 PM 40.8658 -102.4044 261° West 419 482 38,000  Level Denver Center
Fri 03:40:14 PM 40.8489 -102.5483 261° West 416 479 38,000  Level Denver Center
Fri 03:41:16 PM 40.8275 -102.7428 262° West 420 483 38,000  Level Denver Center
Fri 03:42:18 PM 40.8094 -102.8875 261° West 418 481 38,000  Level Denver Center
Fri 03:43:20 PM 40.7897 -103.0567 261° West 421 484 38,000  Level Denver Center
Fri 03:44:22 PM 40.7714 -103.2108 261° West 423 487 38,000  Level Denver Center
Fri 03:45:24 PM 40.7522 -103.3631 261° West 419 482 38,000  Level Denver Center
Fri 03:46:26 PM 40.7336 -103.5181 261° West 425 489 38,000  Level Denver Center
Fri 03:47:28 PM 40.7139 -103.6731 261° West 426 490 38,000  Level Denver Center
Fri 03:48:30 PM 40.6942 -103.8292 261° West 431 496 38,000  Level Denver Center
Fri 03:49:32 PM 40.6711 -104.0108 261° West 429 494 38,000  Level Denver Center
Fri 03:50:34 PM 40.6508 -104.1697 261° West 437 503 38,000  Level Denver Center
Fri 03:51:36 PM 40.6303 -104.3253 260° West 430 495 38,000  Level Denver Center
Fri 03:52:38 PM 40.6097 -104.4825 260° West 433 498 38,000  Level Denver Center
Fri 03:53:40 PM 40.5886 -104.6369 260° West 429 494 38,000  Level Denver Center
Fri 03:54:43 PM 40.5675 -104.7942 260° West 432 497 38,000  Level Denver Center
Fri 03:55:45 PM 40.5433 -104.9758 260° West 431 496 38,000  Level Denver Center
Fri 03:56:47 PM 40.5217 -105.1303 260° West 429 494 38,000  Level Denver Center
Fri 03:57:49 PM 40.4989 -105.2858 259° West 429 494 38,000  Level Denver Center
Fri 03:58:51 PM 40.4778 -105.4425 260° West 433 498 38,000  Level Denver Center
Fri 03:59:53 PM 40.4556 -105.5975 259° West 431 496 38,000  Level Denver Center
Fri 04:00:55 PM 40.4325 -105.7544 259° West 434 499 38,000  Level Denver Center
Fri 04:01:57 PM 40.4111 -105.9100 260° West 432 497 38,000  Level Denver Center
Fri 04:02:59 PM 40.3831 -106.0925 259° West 434 499 38,000  Level Denver Center
Fri 04:04:01 PM 40.3606 -106.2364 258° West 438 504 38,000  Level Denver Center
Fri 04:05:03 PM 40.3358 -106.4122 260° West 439 505 38,000  Level Denver Center
Fri 04:06:05 PM 40.3106 -106.5753 259° West 439 505 38,000  Level Denver Center
Fri 04:07:07 PM 40.2864 -106.7325 259° West 440 506 38,000  Level Denver Center
Fri 04:08:09 PM 40.2622 -106.8892 259° West 442 509 38,000  Level Denver Center
Fri 04:09:11 PM 40.2350 -107.0647 259° West 443 510 38,000  Level Denver Center
Fri 04:10:13 PM 40.2114 -107.2167 259° West 444 511 38,000  Level Denver Center
Fri 04:11:15 PM 40.1828 -107.3936 258° West 447 514 38,000  Level Denver Center
Fri 04:12:17 PM 40.1592 -107.5467 259° West 449 517 38,000  Level Denver Center
Fri 04:13:19 PM 40.1300 -107.7236 258° West 447 514 38,000  Level Denver Center
Fri 04:14:21 PM 40.1061 -107.8772 259° West 450 518 38,000  Level Denver Center
Fri 04:15:23 PM 40.0844 -108.0047 258° West 451 519 38,000  Level Denver Center
Fri 04:16:25 PM 40.0506 -108.2075 258° West 450 518 38,000  Level Denver Center
Fri 04:17:27 PM 40.0200 -108.3864 257° West 454 522 38,000  Level Denver Center
Fri 04:18:29 PM 39.9947 -108.5386 258° West 453 521 38,000  Level Denver Center
Fri 04:19:31 PM 39.9636 -108.7175 257° West 455 524 38,000  Level Denver Center
Fri 04:20:33 PM 39.9372 -108.8700 257° West 456 525 38,000  Level Denver Center
Fri 04:20:50 PM 39.9281 -108.9211 257° West 456 525 38,000  Level Salt Lake Center
Fri 04:21:52 PM 39.9014 -109.0742 257° West 457 526 38,000  Level Salt Lake Center
Fri 04:22:37 PM 39.8786 -109.2008 257° West 456 525 38,000  Level Denver Center
Fri 04:22:53 PM 39.8694 -109.2519 257° West 455 524 38,000  Level Salt Lake Center
Fri 04:23:39 PM 39.8467 -109.3794 257° West 456 525 38,000  Level Denver Center
Fri 04:24:41 PM 39.8192 -109.5311 257° West 452 520 38,000  Level Denver Center
Fri 04:25:43 PM 39.7875 -109.7083 257° West 453 521 38,000  Level Denver Center
Fri 04:25:58 PM 39.7822 -109.7331 254° West 451 519 38,000  Level Salt Lake Center
Fri 04:27:00 PM 39.7506 -109.9111 257° West 453 521 38,000  Level Salt Lake Center
Fri 04:28:01 PM 39.7228 -110.0628 257° West 452 520 38,000  Level Salt Lake Center
Fri 04:29:03 PM 39.6939 -110.2131 256° West 451 519 38,000  Level Salt Lake Center
Fri 04:30:05 PM 39.6622 -110.3903 257° West 451 519 38,000  Level Salt Lake Center
Fri 04:31:06 PM 39.6344 -110.5414 257° West 451 519 38,000  Level Salt Lake Center
Fri 04:32:08 PM 39.6006 -110.7181 256° West 451 519 38,000  Level Salt Lake Center
Fri 04:33:09 PM 39.5703 -110.8703 256° West 454 522 38,000  Level Salt Lake Center
Fri 04:34:11 PM 39.5367 -111.0461 256° West 453 521 38,000  Level Salt Lake Center
Fri 04:35:13 PM 39.5069 -111.1986 256° West 456 525 38,000  Level Salt Lake Center
Fri 04:36:14 PM 39.4764 -111.3564 256° West 454 522 38,000  Level Salt Lake Center
Fri 04:37:16 PM 39.4439 -111.5164 255° West 459 528 38,000  Level Salt Lake Center
Fri 04:38:18 PM 39.4125 -111.6764 256° West 458 527 38,000  Level Salt Lake Center
Fri 04:39:19 PM 39.3806 -111.8361 256° West 459 528 38,000  Level Salt Lake Center
Fri 04:40:21 PM 39.3475 -111.9961 255° West 461 531 38,000  Level Salt Lake Center
Fri 04:41:23 PM 39.3078 -112.1886 255° West 462 532 38,000  Level Salt Lake Center
Fri 04:42:25 PM 39.2747 -112.3486 255° West 462 532 38,000  Level Salt Lake Center
Fri 04:43:26 PM 39.2408 -112.5100 255° West 464 534 38,000  Level Salt Lake Center
Fri 04:44:28 PM 39.2103 -112.6575 255° West 467 537 38,000  Level Salt Lake Center
Fri 04:45:30 PM 39.1686 -112.8486 254° West 465 535 38,000  Level Salt Lake Center
Fri 04:46:31 PM 39.1344 -113.0108 255° West 470 541 38,000  Level Salt Lake Center
Fri 04:47:33 PM 39.1003 -113.1681 254° West 464 534 38,000  Level Salt Lake Center
Fri 04:48:35 PM 39.0650 -113.3303 254° West 467 537 38,000  Level Salt Lake Center
Fri 04:49:36 PM 39.0306 -113.4933 255° West 474 545 38,000  Level Salt Lake Center
Fri 04:50:38 PM 38.9950 -113.6525 254° West 469 540 38,000  Level Salt Lake Center
Fri 04:51:40 PM 38.9528 -113.8461 254° West 471 542 38,000  Level Salt Lake Center
Fri 04:52:41 PM 38.9169 -114.0075 254° West 472 543 38,000  Level Salt Lake Center
Fri 04:53:43 PM 38.8806 -114.1675 254° West 470 541 38,000  Level Salt Lake Center
Fri 04:54:45 PM 38.8442 -114.3272 254° West 470 541 38,000  Level Salt Lake Center
Fri 04:55:46 PM 38.8086 -114.4878 254° West 470 541 38,000  Level Salt Lake Center
Fri 04:56:48 PM 38.7714 -114.6472 253° West 469 540 38,000  Level Salt Lake Center
Fri 04:57:50 PM 38.7347 -114.8083 254° West 472 543 38,000  Level Salt Lake Center
Fri 04:58:52 PM 38.6886 -115.0003 253° West 471 542 38,000  Level Salt Lake Center
Fri 04:59:53 PM 38.6494 -115.1603 253° West 475 547 38,000  Level Salt Lake Center
Fri 05:00:55 PM 38.6131 -115.3172 254° West 467 537 38,000  Level Salt Lake Center
Fri 05:01:57 PM 38.5767 -115.4672 253° West 465 535 38,000  Level Salt Lake Center
Fri 05:02:58 PM 38.5389 -115.6253 253° West 465 535 38,000  Level Salt Lake Center
Fri 05:04:00 PM 38.4939 -115.8164 253° West 467 537 38,000  Level Salt Lake Center
Fri 05:05:02 PM 38.4544 -115.9731 252° West 466 536 38,000  Level Salt Lake Center
Fri 05:06:04 PM 38.4175 -116.1308 253° West 465 535 38,000  Level Salt Lake Center
Fri 05:06:30 PM 38.4008 -116.1942 251° West 469 540 38,000  Level Oakland Center
Fri 05:07:31 PM 38.3625 -116.3522 253° West 468 539 38,000  Level Oakland Center
Fri 05:08:07 PM 38.3400 -116.4467 253° West 466 536 38,000  Level Salt Lake Center
Fri 05:08:32 PM 38.3233 -116.5094 251° West 466 536 38,000  Level Oakland Center
Fri 05:09:34 PM 38.2839 -116.6658 252° West 466 536 38,000  Level Oakland Center
Fri 05:10:35 PM 38.2450 -116.8228 253° West 465 535 38,000  Level Oakland Center
Fri 05:11:12 PM 38.2156 -116.9153 248° West 466 536 38,000  Level Salt Lake Center
Fri 05:12:14 PM 38.1486 -117.0933 244° Southwest 464 534 38,000  Level Salt Lake Center
Fri 05:12:38 PM 38.1331 -117.1361 245° Southwest 464 534 38,000  Level Oakland Center
Fri 05:13:40 PM 38.0764 -117.2881 245° Southwest 472 543 38,000  Level Oakland Center
Fri 05:14:41 PM 38.0225 -117.4364 245° Southwest 463 533 38,000  Level Oakland Center
Fri 05:15:43 PM 37.9567 -117.6128 245° Southwest 461 531 38,000  Level Oakland Center
Fri 05:16:44 PM 37.9006 -117.7608 244° Southwest 465 535 38,000  Level Oakland Center
Fri 05:17:46 PM 37.8447 -117.9089 245° Southwest 465 535 38,000  Level Oakland Center
Fri 05:18:47 PM 37.7889 -118.0569 245° Southwest 466 536 38,000  Level Oakland Center
Fri 05:19:49 PM 37.7347 -118.2042 245° Southwest 465 535 38,000 -98 Level Oakland Center
Fri 05:20:50 PM 37.6797 -118.3514 245° Southwest 463 533 37,800 -634 Descending Oakland Center
Fri 05:21:52 PM 37.6222 -118.4978 244° Southwest 465 535 36,700 -1,415 Descending Oakland Center
Fri 05:22:53 PM 37.5669 -118.6447 245° Southwest 466 536 34,900 -1,707 Descending Oakland Center
Fri 05:23:55 PM 37.5069 -118.7958 243° Southwest 481 554 33,200 -1,854 Descending Oakland Center
Fri 05:24:56 PM 37.4361 -118.9761 244° Southwest 488 562 31,100 -1,854 Descending Oakland Center
Fri 05:25:58 PM 37.3756 -119.1342 244° Southwest 500 575 29,400 -1,610 Descending Oakland Center
Fri 05:26:59 PM 37.3158 -119.2978 245° Southwest 511 588 27,800 -1,610 Descending Oakland Center
Fri 05:28:01 PM 37.2522 -119.4542 243° Southwest 507 583 26,100 -1,610 Descending Oakland Center
Fri 05:29:02 PM 37.1881 -119.6128 243° Southwest 514 592 24,500 -1,415 Descending Oakland Center
Fri 05:30:04 PM 37.1244 -119.7717 243° Southwest 511 588 23,200 -1,073 Descending Oakland Center
Fri 05:31:05 PM 37.0622 -119.9292 244° Southwest 509 586 22,300 -927 Descending Oakland Center
Fri 05:32:07 PM 36.9867 -120.1100 242° Southwest 489 563 21,300 -829 Descending Oakland Center
Fri 05:33:08 PM 36.9333 -120.2431 243° Southwest 481 554 20,600 -780 Descending Oakland Center
Fri 05:34:10 PM 36.8728 -120.3883 243° Southwest 471 542 19,700 -976 Descending Oakland Center
Fri 05:35:11 PM 36.8111 -120.5492 244° Southwest 471 542 18,600 -976 Descending Oakland Center
Fri 05:36:13 PM 36.7594 -120.6939 246° West 462 532 17,700 -1,073 Descending Oakland Center
Fri 05:37:14 PM 36.7117 -120.8342 247° West 437 503 16,400 -1,415 Descending Oakland Center
Fri 05:38:16 PM 36.6647 -120.9692 247° West 427 491 14,800 -1,512 Descending Oakland Center
Fri 05:39:17 PM 36.6186 -121.1008 246° West 423 487 13,300 -1,756 Descending Oakland Center
Fri 05:40:19 PM 36.5769 -121.2206 247° West 327 376 11,200 -1,902 Descending Oakland Center
Fri 05:41:20 PM 36.5442 -121.3133 246° West 301 346 9,400 -1,561 Descending Oakland Center
Fri 05:42:22 PM 36.5122 -121.4081 247° West 300 345 8,000 -927 Descending Oakland Center
Fri 05:43:23 PM 36.4819 -121.4956 247° West 286 329 7,500 -732 Descending Oakland Center
Fri 05:44:25 PM 36.4942 -121.5711 281° West 240 276 6,500 -1,220 Descending Oakland Center
Fri 05:45:26 PM 36.5183 -121.6481 291° West 238 274 5,000 -1,558 Descending Oakland Center
Fri 05:45:42 PM 36.5333 -121.6667 315° West 216 249 4,500 -1,200 Descending Northern Cal TRACON
Fri 05:46:36 PM 36.5500 -121.7333 287° West 182 209 3,600 -1,250 Descending Northern Cal TRACON
Fri 05:47:42 PM 36.5667 -121.7833 293° West 146 168 2,000 -1,455 Descending Northern Cal TRACON

Login

Don't have an account? Register now (free) for customized features, flight alerts, and more!